LKPR/PRG METAR and TAF weather

Enter ICAO airport designator
Station Type Date Time Source
LKPR METAR 2022/01/26 08:00 UTC NOAA

LKPR 260800Z 26007KT 9999 BKN017 00/M03 Q1028 NOSIG


Station Type Date Time Source
LKPR Decoded METAR 2022/01/26 08:00 UTC NOAA

Praha / Ruzyne, Czech Republic (LKPR) 50-06N 014-15E 365M
Jan 26, 2022 - 03:00 AM EST / 2022.01.26 0800 UTC
Wind: from the W (260 degrees) at 8 MPH (7 KT):0
Visibility: greater than 7 mile(s):0
Sky conditions: mostly cloudy
Temperature: 32 F (0 C)
Windchill: 24 F (-4 C):1
Dew Point: 26 F (-3 C)
Relative Humidity: 80%
Pressure (altimeter): 30.36 in. Hg (1028 hPa)
ob: LKPR 260800Z 26007KT 9999 BKN017 00/M03 Q1028 NOSIG
cycle: 8

Station Type Date Time Source
LKPR TAF 2022/01/26 06:17 UTC NOAA

TAF LKPR 260500Z 2606/2712 27008KT 9999 SCT014 OVC020
TEMPO 2606/2617 BKN014 PROB30
TEMPO 2610/2617 28014KT
BECMG 2617/2619 27012KT CAVOK
TEMPO 2700/2712 25016G30KT

Example: see airport list